EW3379 Weather Reports


Display with metric or nautical units.
time (UTC)temp
F
wind
direction
speed
MPH
gust
MPH
rain 1hr
in
rain 24hr
in
rain mn
in
humidity
%
barometer
mb
20190221112205 34 279 2.0 8.0 0.02 0.52 0.35 98 1011.3
20190221111704 33 344 1.0 8.0 0.02 0.52 0.35 98 1011.3
20190221111204 34 261 1.0 8.0 0.03 0.52 0.35 98 1011.5
20190221110704 34 0 1.0 6.0 0.03 0.52 0.35 98 1011.1
20190221110204 34 5 2.0 6.0 0.02 0.51 0.34 98 1011.1
20190221105704 34 355 2.0 6.0 0.03 0.51 0.34 98 1010.9
20190221105204 34 355 2.0 5.0 0.03 0.51 0.34 98 1010.4
20190221104704 34 339 2.0 5.0 0.03 0.51 0.34 98 1010.4
20190221104204 34 35 2.0 5.0 0.03 0.51 0.33 98 1010.6
20190221103704 34 340 2.0 5.0 0.03 0.50 0.33 98 1010.8
20190221103204 34 286 2.0 5.0 0.03 0.50 0.33 98 1010.8
20190221102704 34 281 2.0 4.0 0.03 0.50 0.33 98 1010.7
20190221102204 34 19 1.0 3.0 0.03 0.50 0.33 98 1010.4
20190221101705 34 15 1.0 5.0 0.02 0.49 0.32 98 1010.7
20190221101204 34 355 2.0 5.0 0.03 0.49 0.32 98 1010.6
20190221100705 34 286 2.0 5.0 0.03 0.49 0.32 98 1010.6
20190221100204 34 18 2.0 4.0 0.04 0.49 0.32 98 1010.1
20190221095704 34 326 2.0 4.0 0.03 0.48 0.31 98 1010.2
20190221095204 34 355 1.0 5.0 0.03 0.48 0.31 98 1010.3
20190221094204 34 338 2.0 5.0 0.04 0.48 0.31 98 1010.5
20190221093704 34 340 2.0 4.0 0.03 0.47 0.30 98 1010.5
20190221093205 34 355 1.0 4.0 0.03 0.47 0.30 98 1010.3
20190221092704 34 0 2.0 6.0 0.04 0.47 0.30 98 1010.3
20190221092204 34 0 3.0 6.0 0.04 0.47 0.30 98 1010.2
20190221091705 34 355 2.0 7.0 0.03 0.46 0.29 98 1010.1
20190221091204 33 67 3.0 10.0 0.03 0.46 0.29 98 1010.0
20190221090704 34 338 4.0 13.0 0.04 0.46 0.29 98 1010.1
20190221090205 33 75 5.0 13.0 0.03 0.45 0.28 98 1010.6
20190221085704 33 34 6.0 13.0 0.04 0.45 0.28 98 1010.1
20190221085205 33 263 5.0 11.0 0.04 0.45 0.28 98 1010.4
20190221084704 33 5 4.0 11.0 0.04 0.44 0.27 98 1010.8
20190221084204 33 76 3.0 11.0 0.04 0.44 0.27 98 1010.5
20190221083704 33 305 2.0 4.0 0.05 0.44 0.27 98 1011.0
20190221083204 33 283 2.0 4.0 0.04 0.43 0.26 98 1010.7
20190221082704 33 161 1.0 4.0 0.04 0.43 0.26 98 1010.7
20190221082204 33 40 1.0 4.0 0.05 0.43 0.26 98 1010.7
20190221081704 33 9 2.0 4.0 0.05 0.43 0.26 98 1010.9
20190221081205 33 16 2.0 4.0 0.06 0.43 0.25 98 1010.9
20190221080705 33 55 1.0 4.0 0.05 0.42 0.25 98 1011.0
20190221080204 33 32 1.0 4.0 0.06 0.42 0.25 98 1011.3
20190221075704 33 44 2.0 4.0 0.05 0.41 0.24 98 1011.4
20190221075205 33 18 1.0 5.0 0.06 0.41 0.24 98 1011.5
20190221074704 33 28 2.0 5.0 0.06 0.40 0.23 98 1011.6
20190221074204 33 28 2.0 5.0 0.06 0.40 0.22 98 1011.7
20190221073704 33 15 2.0 4.0 0.06 0.39 0.22 98 1011.9
20190221073204 33 19 2.0 4.0 0.06 0.39 0.22 98 1012.0
20190221072704 33 22 1.0 3.0 0.06 0.39 0.21 98 1012.0
20190221072204 33 30 1.0 3.0 0.05 0.38 0.21 98 1012.3
20190221071705 33 28 1.0 4.0 0.05 0.38 0.21 97 1012.5
20190221071204 33 36 2.0 4.0 0.04 0.37 0.20 97 1012.7
20190221070704 33 58 2.0 4.0 0.05 0.37 0.20 98 1013.0
20190221070204 33 61 2.0 4.0 0.05 0.36 0.19 98 1013.2
20190221065704 34 11 2.0 6.0 0.06 0.36 0.19 98 1013.5
20190221065204 34 32 2.0 6.0 0.05 0.35 0.18 98 1013.7
20190221064705 34 55 3.0 6.0 0.05 0.34 0.17 98 1013.8
20190221064204 34 90 3.0 7.0 0.05 0.33 0.16 98 1013.9
20190221063704 33 74 3.0 7.0 0.06 0.33 0.16 97 1014.2
20190221063204 33 62 3.0 11.0 0.07 0.33 0.16 98 1014.5
20190221062704 33 59 3.0 11.0 0.07 0.33 0.16 97 1014.7
20190221062204 33 34 4.0 11.0 0.09 0.33 0.16 98 1014.8
20190221061704 33 59 3.0 8.0 0.12 0.33 0.16 97 1014.9
20190221061204 33 98 3.0 8.0 0.13 0.33 0.16 97 1015.1
20190221060704 33 81 3.0 11.0 0.14 0.32 0.15 97 1015.4
20190221060204 33 80 4.0 11.0 0.13 0.30 0.13 97 1015.7
20190221055704 33 92 4.0 11.0 0.15 0.30 0.13 97 1016.1
20190221055204 33 71 3.0 9.0 0.17 0.30 0.13 97 1016.3
20190221054704 33 80 4.0 9.0 0.18 0.29 0.12 97 1016.6
20190221054205 33 90 5.0 9.0 0.18 0.27 0.10 97 1016.8
20190221053704 33 94 5.0 9.0 0.18 0.26 0.09 97 1017.0
20190221053205 33 77 4.0 8.0 0.19 0.26 0.09 97 1017.4
20190221052704 33 98 4.0 8.0 0.19 0.26 0.09 97 1017.8
20190221052204 33 93 4.0 9.0 0.17 0.23 0.06 97 1017.9
20190221051704 32 92 5.0 9.0 0.16 0.21 0.04 97 1018.0
20190221051204 32 113 5.0 9.0 0.15 0.20 0.03 97 1018.1
20190221050704 32 113 3.0 7.0 0.16 0.18 0.01 97 1018.3
20190221050204 32 96 3.0 6.0 0.14 0.16 0.16 97 1018.5
20190221045704 32 85 2.0 6.0 0.13 0.15 0.15 97 1018.5
20190221045204 32 73 2.0 4.0 0.10 0.12 0.12 97 1019.0
20190221044704 32 80 2.0 6.0 0.08 0.10 0.10 97 1019.4
20190221044204 32 62 2.0 6.0 0.07 0.09 0.09 97 1019.7
20190221043705 32 35 3.0 7.0 0.07 0.08 0.08 97 1020.1
20190221043205 32 26 2.0 7.0 0.06 0.07 0.07 97 1020.0
20190221042704 32 86 2.0 8.0 0.06 0.07 0.07 97 1019.6
20190221042205 32 56 3.0 8.0 0.05 0.06 0.06 97 1019.5
20190221041704 32 69 4.0 9.0 0.04 0.05 0.05 97 1019.7
20190221041204 32 76 4.0 9.0 0.03 0.04 0.04 97 1019.8
20190221040704 32 80 4.0 9.0 0.01 0.02 0.02 97 1019.9
20190221040204 32 86 3.0 8.0 0.02 0.02 0.02 97 1020.1
20190221035704 32 91 3.0 7.0 0.02 0.02 0.02 97 1020.3
20190221035205 32 30 2.0 7.0 0.02 0.02 0.02 97 1020.8
20190221034704 32 67 3.0 8.0 0.02 0.02 0.02 97 1020.9
20190221034205 32 72 3.0 8.0 0.01 0.01 0.01 97 1021.1
20190221033704 32 74 3.0 9.0 0.01 0.01 0.01 97 1021.3
20190221033204 32 88 3.0 9.0 0.01 0.01 0.01 97 1021.5
20190221032704 32 95 3.0 9.0 0.01 0.01 0.01 97 1021.5
20190221032204 32 102 3.0 9.0 0.01 0.01 0.01 97 1021.5
20190221031705 32 82 3.0 8.0 0.01 0.01 0.01 96 1021.8
20190221031204 32 99 2.0 6.0 0.01 0.01 0.01 96 1021.9
20190221030704 32 94 2.0 8.0 0.01 0.01 0.01 96 1022.1
20190221030204 32 69 3.0 9.0 0.00 0.00 0.00 96 1022.3
20190221025705 32 98 3.0 9.0 0.00 0.00 0.00 96 1022.5
20190221025204 32 103 3.0 9.0 0.00 0.00 0.00 96 1022.7
20190221024704 32 98 4.0 9.0 0.00 0.00 0.00 96 1022.8
20190221024204 32 126 4.0 12.0 0.00 0.00 0.00 96 1022.8
20190221023704 32 115 4.0 12.0 0.00 0.00 0.00 96 1023.0
20190221023204 32 113 5.0 12.0 0.00 0.00 0.00 96 1023.0
20190221022705 32 112 4.0 9.0 0.00 0.00 0.00 96 1022.9
20190221022205 32 89 4.0 10.0 0.00 0.00 0.00 96 1023.2
20190221021705 32 107 4.0 10.0 0.00 0.00 0.00 96 1023.2
20190221021204 31 117 4.0 10.0 0.00 0.00 0.00 96 1023.3
20190221020704 31 88 4.0 8.0 0.00 0.00 0.00 96 1023.4
20190221020205 31 96 4.0 8.0 0.00 0.00 0.00 96 1023.7
20190221015704 31 101 3.0 8.0 0.00 0.00 0.00 96 1023.9
20190221015205 31 96 2.0 4.0 0.00 0.00 0.00 96 1024.0
20190221014704 30 54 3.0 4.0 0.00 0.00 0.00 96 1024.1
20190221014204 30 91 2.0 5.0 0.00 0.00 0.00 96 1024.2
20190221013704 30 47 2.0 5.0 0.00 0.00 0.00 96 1024.4
20190221013205 30 79 2.0 5.0 0.00 0.00 0.00 96 1024.6
20190221012704 29 87 2.0 5.0 0.00 0.00 0.00 95 1024.8
20190221012204 29 71 2.0 5.0 0.00 0.00 0.00 96 1025.0
20190221011704 29 79 1.0 4.0 0.00 0.00 0.00 96 1025.1
20190221011204 29 71 2.0 5.0 0.00 0.00 0.00 95 1025.3
20190221010704 28 91 2.0 5.0 0.00 0.00 0.00 95 1025.1
20190221010204 28 70 2.0 5.0 0.00 0.00 0.00 95 1025.2
20190221005705 28 93 3.0 5.0 0.00 0.00 0.00 95 1025.2
20190221005204 28 69 2.0 6.0 0.00 0.00 0.00 95 1025.3
20190221004705 28 95 2.0 7.0 0.00 0.00 0.00 95 1025.4
20190221004204 28 92 3.0 7.0 0.00 0.00 0.00 95 1025.5
20190221003705 28 74 3.0 7.0 0.00 0.00 0.00 95 1025.5
20190221003204 28 111 3.0 8.0 0.00 0.00 0.00 95 1025.5
20190221002704 28 71 4.0 8.0 0.00 0.00 0.00 95 1025.6
20190221002204 27 80 4.0 8.0 0.00 0.00 0.00 95 1025.6
20190221001704 27 96 4.0 8.0 0.00 0.00 0.00 95 1025.6
20190221001205 27 88 3.0 7.0 0.00 0.00 0.00 95 1025.9
20190221000704 27 62 3.0 8.0 0.00 0.00 0.00 95 1026.0
20190221000205 27 96 3.0 8.0 0.00 0.00 0.00 95 1026.3
20190220235705 27 94 3.0 8.0 0.00 0.00 0.00 95 1026.5
20190220235205 27 90 3.0 5.0 0.00 0.00 0.00 94 1026.6
20190220234705 27 78 3.0 7.0 0.00 0.00 0.00 94 1026.9
20190220234204 27 73 3.0 7.0 0.00 0.00 0.00 95 1027.0
20190220233704 27 88 4.0 7.0 0.00 0.00 0.00 94 1026.9
20190220233204 27 92 3.0 7.0 0.00 0.00 0.00 94 1027.0
20190220232704 27 62 3.0 7.0 0.00 0.00 0.00 94 1027.2
20190220232204 27 97 3.0 7.0 0.00 0.00 0.00 94 1027.4
20190220231705 27 79 3.0 6.0 0.00 0.00 0.00 94 1027.3
20190220231204 27 97 2.0 6.0 0.00 0.00 0.00 94 1027.6
20190220230704 27 90 2.0 7.0 0.00 0.00 0.00 94 1027.9
20190220230204 27 88 2.0 7.0 0.00 0.00 0.00 94 1027.9
20190220225704 27 75 2.0 7.0 0.00 0.00 0.00 94 1028.1
20190220225204 27 53 3.0 7.0 0.00 0.00 0.00 94 1028.2
20190220224705 27 87 3.0 7.0 0.00 0.00 0.00 94 1028.3
20190220224204 27 90 3.0 9.0 0.00 0.00 0.00 94 1028.5
20190220223705 27 79 3.0 9.0 0.00 0.00 0.00 94 1028.5
20190220223204 27 88 3.0 9.0 0.00 0.00 0.00 94 1028.6
20190220222704 27 95 3.0 8.0 0.00 0.00 0.00 94 1028.6
20190220222204 26 105 4.0 8.0 0.00 0.00 0.00 94 1028.7
20190220221704 26 94 3.0 8.0 0.00 0.00 0.00 93 1028.6
20190220221204 26 107 3.0 7.0 0.00 0.00 0.00 93 1028.7
20190220220704 26 74 3.0 7.0 0.00 0.00 0.00 93 1029.0
20190220220204 26 104 2.0 7.0 0.00 0.00 0.00 93 1029.1
20190220215704 27 97 2.0 7.0 0.00 0.00 0.00 93 1029.1
20190220215204 27 82 3.0 8.0 0.00 0.00 0.00 93 1029.3
20190220214705 26 102 2.0 8.0 0.00 0.00 0.00 93 1029.1
20190220214204 26 130 2.0 8.0 0.00 0.00 0.00 93 1029.2
20190220213704 26 91 3.0 8.0 0.00 0.00 0.00 93 1029.2
20190220213205 26 102 3.0 10.0 0.00 0.00 0.00 93 1029.2
20190220212704 26 105 4.0 10.0 0.00 0.00 0.00 93 1029.4
20190220212205 26 100 5.0 10.0 0.00 0.00 0.00 92 1029.4
20190220211705 26 108 5.0 9.0 0.00 0.00 0.00 92 1029.4
20190220211204 26 104 4.0 9.0 0.00 0.00 0.00 92 1029.6
20190220210704 26 88 4.0 9.0 0.00 0.00 0.00 92 1029.7
20190220210204 26 74 3.0 10.0 0.00 0.00 0.00 92 1029.9
20190220205704 26 98 4.0 10.0 0.00 0.00 0.00 92 1030.1
20190220205205 26 98 4.0 10.0 0.00 0.00 0.00 92 1030.3
20190220204704 26 92 3.0 7.0 0.00 0.00 0.00 91 1030.4
20190220204205 26 62 3.0 7.0 0.00 0.00 0.00 91 1030.4
20190220203704 27 77 3.0 7.0 0.00 0.00 0.00 91 1030.5
20190220203204 26 82 4.0 7.0 0.00 0.00 0.00 91 1030.5
20190220202704 26 78 3.0 7.0 0.00 0.00 0.00 91 1030.5
20190220202204 26 98 3.0 9.0 0.00 0.00 0.00 90 1030.7
20190220201704 26 100 4.0 9.0 0.00 0.00 0.00 90 1030.9
20190220201204 26 89 4.0 9.0 0.00 0.00 0.00 90 1030.9
20190220200704 26 84 4.0 8.0 0.00 0.00 0.00 90 1031.0
20190220200204 26 106 3.0 8.0 0.00 0.00 0.00 89 1031.1
20190220195704 26 84 3.0 8.0 0.00 0.00 0.00 89 1031.2
20190220195204 26 103 3.0 8.0 0.00 0.00 0.00 88 1031.4
20190220194733 27 75 2.0 6.0 0.00 0.00 0.00 89 1031.5
20190220194204 27 87 2.0 6.0 0.00 0.00 0.00 88 1031.8
20190220193705 27 90 2.0 6.0 0.00 0.00 0.00 88 1031.8
20190220193204 26 81 2.0 6.0 0.00 0.00 0.00 88 1031.9
20190220192705 26 78 1.0 6.0 0.00 0.00 0.00 88 1031.9
20190220192205 26 104 2.0 6.0 0.00 0.00 0.00 87 1032.1
20190220191706 26 104 2.0 6.0 0.00 0.00 0.00 87 1032.1
20190220191204 26 142 1.0 5.0 0.00 0.00 0.00 87 1032.1
20190220190704 26 146 1.0 5.0 0.00 0.00 0.00 87 1032.1
20190220190205 26 146 2.0 5.0 0.00 0.00 0.00 86 1032.1
20190220185704 26 150 1.0 4.0 0.00 0.00 0.00 86 1032.2
20190220185204 26 162 1.0 4.0 0.00 0.00 0.00 87 1032.1
20190220184704 26 160 1.0 4.0 0.00 0.00 0.00 85 1032.4
20190220184204 26 125 1.0 4.0 0.00 0.00 0.00 85 1032.2
20190220183704 26 111 1.0 4.0 0.00 0.00 0.00 85 1032.5
20190220183205 26 198 1.0 5.0 0.00 0.00 0.00 84 1032.7
20190220182704 26 187 1.0 5.0 0.00 0.00 0.00 82 1033.0
20190220182204 26 177 2.0 9.0 0.00 0.00 0.00 80 1033.2
20190220181704 26 186 3.0 12.0 0.00 0.00 0.00 78 1033.1
20190220181204 26 193 3.0 12.0 0.00 0.00 0.00 76 1033.5
20190220180704 26 217 4.0 12.0 0.00 0.00 0.00 75 1033.6
20190220180204 27 204 4.0 9.0 0.00 0.00 0.00 70 1033.2
20190220175704 28 207 4.0 8.0 0.00 0.00 0.00 63 1033.5
20190220175204 28 201 4.0 8.0 0.00 0.00 0.00 58 1033.5
20190220174705 28 212 4.0 8.0 0.00 0.00 0.00 58 1033.5
20190220174205 28 212 3.0 7.0 0.00 0.00 0.00 58 1033.4
20190220173704 28 179 3.0 7.0 0.00 0.00 0.00 58 1033.5
20190220173205 28 157 2.0 6.0 0.00 0.00 0.00 57 1033.5
20190220172705 28 173 1.0 3.0 0.00 0.00 0.00 58 1033.6
20190220172204 28 134 1.0 3.0 0.00 0.00 0.00 58 1033.5
20190220171704 28 131 1.0 4.0 0.00 0.00 0.00 59 1033.6
20190220171205 28 125 1.0 4.0 0.00 0.00 0.00 59 1033.5
20190220170704 28 108 1.0 4.0 0.00 0.00 0.00 60 1033.6
20190220170204 28 157 1.0 4.0 0.00 0.00 0.00 59 1033.9
20190220165705 28 159 1.0 3.0 0.00 0.00 0.00 59 1034.1
20190220165204 28 150 1.0 3.0 0.00 0.00 0.00 60 1034.3
20190220164704 27 153 1.0 4.0 0.00 0.00 0.00 60 1034.4
20190220164205 28 127 1.0 4.0 0.00 0.00 0.00 60 1034.3
20190220163704 28 127 1.0 4.0 0.00 0.00 0.00 60 1034.3
20190220163204 28 69 1.0 3.0 0.00 0.00 0.00 61 1034.5
20190220162704 28 66 1.0 3.0 0.00 0.00 0.00 61 1034.5
20190220162204 28 66 1.0 3.0 0.00 0.00 0.00 62 1034.6
20190220161705 28 66 2.0 5.0 0.00 0.00 0.00 61 1034.6
20190220161205 28 66 2.0 6.0 0.00 0.00 0.00 61 1034.7
20190220160704 28 56 3.0 6.0 0.00 0.00 0.00 61 1034.8
20190220160204 28 60 3.0 6.0 0.00 0.00 0.00 61 1034.9
20190220155704 28 43 3.0 6.0 0.00 0.00 0.00 62 1035.0
20190220155204 27 355 3.0 7.0 0.00 0.00 0.00 63 1035.0
20190220154704 27 101 2.0 7.0 0.00 0.00 0.00 63 1035.0
20190220154204 27 68 3.0 7.0 0.00 0.00 0.00 64 1034.9
20190220153704 27 81 3.0 7.0 0.00 0.00 0.00 64 1034.8
20190220153204 27 16 3.0 7.0 0.00 0.00 0.00 64 1034.8
20190220152704 27 36 3.0 6.0 0.00 0.00 0.00 64 1034.6
20190220152205 27 79 2.0 6.0 0.00 0.00 0.00 63 1034.8
20190220151704 27 76 2.0 4.0 0.00 0.00 0.00 63 1035.0
20190220151204 26 86 2.0 7.0 0.00 0.00 0.00 63 1034.9
20190220150704 26 55 2.0 7.0 0.00 0.00 0.00 63 1035.0
20190220150204 26 92 3.0 7.0 0.00 0.00 0.00 62 1035.1
20190220145704 26 90 2.0 6.0 0.00 0.00 0.00 63 1035.1
20190220145205 26 90 3.0 9.0 0.00 0.00 0.00 63 1035.1
20190220144704 26 59 4.0 9.0 0.00 0.00 0.00 64 1035.2
20190220144204 26 22 4.0 9.0 0.00 0.00 0.00 65 1035.2
20190220143704 26 101 4.0 8.0 0.00 0.00 0.00 63 1035.1
20190220143205 26 55 3.0 8.0 0.00 0.00 0.00 64 1035.1
20190220142704 26 86 3.0 8.0 0.00 0.00 0.00 64 1035.6
20190220142204 26 5 4.0 8.0 0.00 0.00 0.00 63 1035.6
20190220141705 27 24 3.0 5.0 0.00 0.00 0.00 63 1035.7
20190220141204 26 21 2.0 8.0 0.00 0.00 0.00 64 1035.9
20190220140704 26 339 3.0 8.0 0.00 0.00 0.00 65 1036.2
20190220140204 26 335 4.0 9.0 0.00 0.00 0.00 67 1035.9
20190220135704 26 333 4.0 9.0 0.00 0.00 0.00 65 1035.7
20190220135204 26 5 3.0 10.0 0.00 0.00 0.00 65 1035.5
20190220134704 26 40 3.0 10.0 0.00 0.00 0.00 65 1035.3
20190220134204 26 32 4.0 10.0 0.00 0.00 0.00 65 1035.5
20190220133704 26 36 4.0 9.0 0.00 0.00 0.00 65 1035.4
20190220133204 26 47 4.0 8.0 0.00 0.00 0.00 68 1035.4
20190220132704 26 31 4.0 8.0 0.00 0.00 0.00 70 1035.5
20190220132204 25 26 2.0 5.0 0.00 0.00 0.00 66 1035.7
20190220131705 25 36 2.0 6.0 0.00 0.00 0.00 67 1035.8
20190220131204 25 9 2.0 6.0 0.00 0.00 0.00 69 1035.9
20190220130705 25 61 3.0 5.0 0.00 0.00 0.00 67 1035.9
20190220130204 25 84 3.0 6.0 0.00 0.00 0.00 66 1035.9
20190220125704 25 57 3.0 7.0 0.00 0.00 0.00 67 1036.2
20190220125204 25 79 3.0 7.0 0.00 0.00 0.00 67 1036.3
20190220124704 25 42 2.0 7.0 0.00 0.00 0.00 67 1036.3
20190220124204 25 30 1.0 4.0 0.00 0.00 0.00 68 1036.2
20190220123705 25 28 1.0 4.0 0.00 0.00 0.00 69 1036.0
20190220123205 24 44 1.0 6.0 0.00 0.00 0.00 68 1036.1
20190220122705 25 54 2.0 6.0 0.00 0.00 0.00 69 1036.0
20190220122204 24 36 1.0 6.0 0.00 0.00 0.00 68 1035.6
20190220121704 24 42 1.0 7.0 0.00 0.00 0.00 67 1035.3
20190220121204 24 42 2.0 7.0 0.00 0.00 0.00 67 1035.0
20190220120704 24 28 3.0 7.0 0.00 0.00 0.00 66 1034.9
20190220120204 24 34 3.0 5.0 0.00 0.00 0.00 69 1034.9
20190220115704 24 46 3.0 5.0 0.00 0.00 0.00 66 1035.0
20190220115204 24 35 2.0 7.0 0.00 0.00 0.00 67 1035.1
20190220114704 24 57 2.0 7.0 0.00 0.00 0.00 68 1035.3
20190220114205 24 17 2.0 7.0 0.00 0.00 0.00 66 1035.2
20190220113704 24 325 2.0 5.0 0.00 0.00 0.00 67 1035.1
20190220113205 24 15 2.0 5.0 0.00 0.00 0.00 66 1035.2
20190220112704 24 355 2.0 5.0 0.00 0.00 0.00 66 1035.0